Time;durP1;ratioP1;P1;durP2;ratioP2;P2;SDS_P1;SDS_P2;PMS_P1;PMS_P2;Temp;Humidity;BMP_temperature;BMP_pressure;BME280_temperature;BME280_humidity;BME280_pressure;Samples;Min_cycle;Max_cycle;Signal;HPM_P1;HPM_P2
2023/05/02 00:01:07;;;;;;;2.30;2.13;;;;;;;;;;8291743;28;20602;-71
2023/05/02 00:05:07;;;;;;;3.25;2.80;;;;;;;;;;8292845;28;20132;-71
2023/05/02 00:09:07;;;;;;;3.08;2.50;;;;;;;;;;8289228;28;20021;-71
2023/05/02 00:13:07;;;;;;;3.30;3.03;;;;;;;;;;8294162;28;20871;-71
2023/05/02 00:17:08;;;;;;;3.08;2.88;;;;;;;;;;8291259;28;20339;-71
2023/05/02 00:21:08;;;;;;;3.57;3.27;;;;;;;;;;8290863;28;20028;-71
2023/05/02 00:25:09;;;;;;;3.33;3.00;;;;;;;;;;8299551;28;20486;-71
2023/05/02 00:29:09;;;;;;;3.47;3.17;;;;;;;;;;8299620;28;20029;-71
2023/05/02 00:33:11;;;;;;;3.97;3.58;;;;;;;;;;8298973;28;20037;-71
2023/05/02 00:37:12;;;;;;;3.53;3.22;;;;;;;;;;8289341;28;20060;-71
2023/05/02 00:41:12;;;;;;;3.35;3.05;;;;;;;;;;8299689;28;20029;-71
2023/05/02 00:45:13;;;;;;;3.72;3.42;;;;;;;;;;8298245;28;20040;-71
2023/05/02 00:49:13;;;;;;;3.67;3.38;;;;;;;;;;8298611;28;20088;-71
2023/05/02 00:53:13;;;;;;;4.43;3.90;;;;;;;;;;8289016;28;20091;-71
2023/05/02 00:57:14;;;;;;;4.00;3.70;;;;;;;;;;8287467;28;20036;-70
2023/05/02 01:01:28;;;;;;;5.07;4.57;;;;;;;;;;8286163;28;20156;-71
2023/05/02 01:05:34;;;;;;;4.97;4.45;;;;;;;;;;8286109;28;20022;-71
2023/05/02 01:09:53;;;;;;;4.68;4.20;;;;;;;;;;8290504;28;20029;-71
2023/05/02 01:13:54;;;;;;;6.97;4.80;;;;;;;;;;8293315;28;20032;-71
2023/05/02 01:17:55;;;;;;;6.15;4.95;;;;;;;;;;8286359;28;20041;-71
2023/05/02 01:21:55;;;;;;;5.80;4.97;;;;;;;;;;8288407;28;20134;-71
2023/05/02 01:26:02;;;;;;;5.78;5.28;;;;;;;;;;8289149;28;20029;-70
2023/05/02 01:30:03;;;;;;;5.78;5.18;;;;;;;;;;8285974;28;20028;-71
2023/05/02 01:34:04;;;;;;;6.45;5.57;;;;;;;;;;8286961;28;20045;-71
2023/05/02 01:38:05;;;;;;;7.47;6.10;;;;;;;;;;8284277;28;20544;-71
2023/05/02 01:42:05;;;;;;;6.25;5.68;;;;;;;;;;8304643;28;20025;-71
2023/05/02 01:46:07;;;;;;;7.18;6.20;;;;;;;;;;8291908;28;20931;-71
2023/05/02 01:50:10;;;;;;;10.77;7.97;;;;;;;;;;8286304;28;20052;-71
2023/05/02 01:54:11;;;;;;;9.45;7.57;;;;;;;;;;8286343;28;20021;-70
2023/05/02 01:58:12;;;;;;;9.57;7.95;;;;;;;;;;8287148;28;20951;-71
2023/05/02 02:02:13;;;;;;;9.90;7.88;;;;;;;;;;8297831;28;20065;-71
2023/05/02 02:06:14;;;;;;;8.38;7.47;;;;;;;;;;8286452;28;20032;-71
2023/05/02 02:10:14;;;;;;;10.40;8.07;;;;;;;;;;8289771;28;20107;-71
2023/05/02 02:14:20;;;;;;;8.43;7.53;;;;;;;;;;8295866;28;20042;-71
2023/05/02 02:18:21;;;;;;;10.30;8.50;;;;;;;;;;8287223;28;20096;-71
2023/05/02 02:22:22;;;;;;;10.45;9.30;;;;;;;;;;8299749;28;20036;-71
2023/05/02 02:26:23;;;;;;;11.35;9.55;;;;;;;;;;8297702;28;20075;-71
2023/05/02 02:30:23;;;;;;;12.18;10.98;;;;;;;;;;8292341;28;20042;-71
2023/05/02 02:34:23;;;;;;;11.27;10.07;;;;;;;;;;8286845;28;20036;-71
2023/05/02 02:38:26;;;;;;;11.40;10.15;;;;;;;;;;8284582;28;20396;-71
2023/05/02 02:42:35;;;;;;;13.47;9.97;;;;;;;;;;8293470;28;20029;-71
2023/05/02 02:46:47;;;;;;;15.13;10.88;;;;;;;;;;8289853;28;20366;-70
2023/05/02 02:50:47;;;;;;;12.95;11.65;;;;;;;;;;8285943;28;20036;-71
2023/05/02 02:54:58;;;;;;;12.73;11.43;;;;;;;;;;8284905;28;20025;-71
2023/05/02 02:59:08;;;;;;;13.43;11.73;;;;;;;;;;8283773;28;20327;-70
2023/05/02 03:03:08;;;;;;;13.13;11.75;;;;;;;;;;8282799;28;20037;-71
2023/05/02 03:07:09;;;;;;;14.93;13.15;;;;;;;;;;8286373;28;20029;-71
2023/05/02 03:11:09;;;;;;;18.45;15.48;;;;;;;;;;8281674;28;20094;-71
2023/05/02 03:15:29;;;;;;;17.63;15.15;;;;;;;;;;8285147;28;20131;-70
2023/05/02 03:19:29;;;;;;;17.27;14.77;;;;;;;;;;8251982;28;20071;-71
2023/05/02 03:23:29;;;;;;;18.92;16.35;;;;;;;;;;8251938;28;20145;-71
2023/05/02 03:27:30;;;;;;;20.60;17.88;;;;;;;;;;8252716;28;20055;-70
2023/05/02 03:31:30;;;;;;;17.77;15.73;;;;;;;;;;8252066;28;20034;-71
2023/05/02 03:35:31;;;;;;;18.00;14.05;;;;;;;;;;8253132;28;20642;-70
2023/05/02 03:39:31;;;;;;;24.00;20.33;;;;;;;;;;8259758;28;20033;-70
2023/05/02 03:43:31;;;;;;;23.75;17.80;;;;;;;;;;8263036;28;20021;-70
2023/05/02 03:47:31;;;;;;;22.98;19.08;;;;;;;;;;8281766;28;20041;-71
2023/05/02 03:51:32;;;;;;;23.38;19.55;;;;;;;;;;8286612;28;20112;-71
2023/05/02 03:55:37;;;;;;;23.63;19.20;;;;;;;;;;8292694;28;20113;-70
2023/05/02 03:59:40;;;;;;;24.13;19.10;;;;;;;;;;8284709;28;20095;-71
2023/05/02 04:03:40;;;;;;;24.67;20.17;;;;;;;;;;8253887;28;20069;-71
2023/05/02 04:07:41;;;;;;;29.70;22.77;;;;;;;;;;8266674;28;20026;-71
2023/05/02 04:11:41;;;;;;;25.75;20.85;;;;;;;;;;8264301;28;20022;-71
2023/05/02 04:15:43;;;;;;;27.58;21.52;;;;;;;;;;8261972;28;20124;-71
2023/05/02 04:19:43;;;;;;;36.97;25.73;;;;;;;;;;8253956;28;20038;-71
2023/05/02 04:23:44;;;;;;;24.13;19.50;;;;;;;;;;8256647;28;20024;-70
2023/05/02 04:27:44;;;;;;;24.60;20.80;;;;;;;;;;8264687;28;20024;-71
2023/05/02 04:31:45;;;;;;;27.08;21.27;;;;;;;;;;8271023;28;20106;-71
2023/05/02 04:35:45;;;;;;;24.75;19.73;;;;;;;;;;8287051;28;20055;-71
2023/05/02 04:39:45;;;;;;;28.92;21.98;;;;;;;;;;8290460;28;20037;-71
2023/05/02 04:43:46;;;;;;;26.33;20.70;;;;;;;;;;8298426;28;20033;-71
2023/05/02 04:47:46;;;;;;;36.47;25.90;;;;;;;;;;8299772;28;20077;-71
2023/05/02 04:51:46;;;;;;;34.97;25.08;;;;;;;;;;8292403;28;20302;-72
2023/05/02 04:55:46;;;;;;;31.17;23.77;;;;;;;;;;8286902;28;20026;-72
2023/05/02 04:59:47;;;;;;;33.65;24.55;;;;;;;;;;8286862;28;20033;-73
2023/05/02 05:03:47;;;;;;;31.88;22.90;;;;;;;;;;8288698;28;20088;-72
2023/05/02 05:07:47;;;;;;;31.83;23.17;;;;;;;;;;8289749;28;20029;-72
2023/05/02 05:11:47;;;;;;;33.10;24.88;;;;;;;;;;8287139;28;20276;-72
2023/05/02 05:15:47;;;;;;;35.78;25.55;;;;;;;;;;8287425;28;20046;-72
2023/05/02 05:19:48;;;;;;;36.28;25.95;;;;;;;;;;8287342;28;20502;-72
2023/05/02 05:23:48;;;;;;;32.90;25.10;;;;;;;;;;8286892;28;20055;-72
2023/05/02 05:27:48;;;;;;;37.03;25.80;;;;;;;;;;8290249;28;20033;-72
2023/05/02 05:31:48;;;;;;;36.90;27.83;;;;;;;;;;8283510;28;21102;-72
2023/05/02 05:35:48;;;;;;;30.02;22.70;;;;;;;;;;8296215;28;20033;-71
2023/05/02 05:39:49;;;;;;;31.50;22.27;;;;;;;;;;8289245;28;20075;-72
2023/05/02 05:43:49;;;;;;;30.67;22.80;;;;;;;;;;8291965;28;20037;-74
2023/05/02 05:47:50;;;;;;;30.33;22.15;;;;;;;;;;8284548;28;20036;-72
2023/05/02 05:51:50;;;;;;;29.73;22.52;;;;;;;;;;8284668;28;20034;-72
2023/05/02 05:55:50;;;;;;;29.35;23.35;;;;;;;;;;8287348;28;20025;-71
2023/05/02 05:59:51;;;;;;;32.00;25.33;;;;;;;;;;8287334;28;20081;-71
2023/05/02 06:03:51;;;;;;;37.15;25.92;;;;;;;;;;8286424;28;20037;-72
2023/05/02 06:07:51;;;;;;;36.53;26.90;;;;;;;;;;8286532;28;20029;-73
2023/05/02 06:11:52;;;;;;;29.80;22.73;;;;;;;;;;8295184;28;20040;-71
2023/05/02 06:15:52;;;;;;;31.08;23.15;;;;;;;;;;8299307;28;20124;-73
2023/05/02 06:19:52;;;;;;;29.13;21.35;;;;;;;;;;8298324;28;20033;-73
2023/05/02 06:23:53;;;;;;;27.73;21.92;;;;;;;;;;8283023;28;20026;-72
2023/05/02 06:27:53;;;;;;;25.08;20.27;;;;;;;;;;8294023;28;20033;-73
2023/05/02 06:31:56;;;;;;;24.05;19.92;;;;;;;;;;8290460;28;20025;-72
2023/05/02 06:35:56;;;;;;;22.33;19.93;;;;;;;;;;8291215;28;20057;-73
2023/05/02 06:39:56;;;;;;;24.73;20.55;;;;;;;;;;8290432;28;20453;-72
2023/05/02 06:43:56;;;;;;;24.75;19.88;;;;;;;;;;8290899;28;20030;-72
2023/05/02 06:47:56;;;;;;;21.65;18.30;;;;;;;;;;8287706;28;20115;-72
2023/05/02 06:51:57;;;;;;;29.92;20.90;;;;;;;;;;8293646;28;20056;-74
2023/05/02 06:55:57;;;;;;;25.95;20.42;;;;;;;;;;8292146;28;20037;-73
2023/05/02 06:59:57;;;;;;;22.52;19.00;;;;;;;;;;8289496;28;20033;-72
2023/05/02 07:03:57;;;;;;;25.05;20.23;;;;;;;;;;8287751;28;20109;-73
2023/05/02 07:07:58;;;;;;;23.35;17.95;;;;;;;;;;8283006;28;20032;-73
2023/05/02 07:11:59;;;;;;;20.63;18.23;;;;;;;;;;8291532;28;20476;-73
2023/05/02 07:16:00;;;;;;;19.00;17.00;;;;;;;;;;8297388;28;20037;-73
2023/05/02 07:20:00;;;;;;;19.75;17.27;;;;;;;;;;8299660;28;20030;-73
2023/05/02 07:24:00;;;;;;;18.13;15.35;;;;;;;;;;8289789;28;20505;-73
2023/05/02 07:28:00;;;;;;;18.10;15.70;;;;;;;;;;8290200;28;20052;-73
2023/05/02 07:32:01;;;;;;;20.30;16.93;;;;;;;;;;8287662;28;20034;-74
2023/05/02 07:36:02;;;;;;;19.08;16.38;;;;;;;;;;8286363;28;20099;-73
2023/05/02 07:40:02;;;;;;;16.48;14.70;;;;;;;;;;8296757;28;20538;-73
2023/05/02 07:44:02;;;;;;;17.00;13.27;;;;;;;;;;8287844;28;20029;-72
2023/05/02 07:48:03;;;;;;;17.52;13.32;;;;;;;;;;8289290;28;20109;-74
2023/05/02 07:52:03;;;;;;;17.17;14.68;;;;;;;;;;8290314;28;20433;-74
2023/05/02 07:56:07;;;;;;;16.27;13.63;;;;;;;;;;8296562;28;20041;-74
2023/05/02 08:00:08;;;;;;;17.65;13.60;;;;;;;;;;8293910;28;20033;-75
2023/05/02 08:04:10;;;;;;;16.73;13.18;;;;;;;;;;8296948;28;20021;-74
2023/05/02 08:08:13;;;;;;;15.23;13.13;;;;;;;;;;8296354;28;20257;-76
2023/05/02 08:12:13;;;;;;;18.10;14.30;;;;;;;;;;8297842;28;20819;-73
2023/05/02 08:16:13;;;;;;;18.35;14.90;;;;;;;;;;8291995;28;20037;-74
2023/05/02 08:20:14;;;;;;;17.88;14.45;;;;;;;;;;8294770;28;20029;-74
2023/05/02 08:24:14;;;;;;;20.70;14.50;;;;;;;;;;8292147;28;20497;-74
2023/05/02 08:28:16;;;;;;;19.33;14.67;;;;;;;;;;8303205;28;20021;-74
2023/05/02 08:32:16;;;;;;;15.60;12.95;;;;;;;;;;8293965;28;20271;-74
2023/05/02 08:36:17;;;;;;;14.57;11.73;;;;;;;;;;8293366;28;20021;-74
2023/05/02 08:40:19;;;;;;;12.68;10.38;;;;;;;;;;8292942;28;20570;-73
2023/05/02 08:44:19;;;;;;;14.45;9.93;;;;;;;;;;8298832;28;20380;-73
2023/05/02 08:48:20;;;;;;;12.40;9.27;;;;;;;;;;8299525;28;20391;-73
2023/05/02 08:52:21;;;;;;;14.00;9.18;;;;;;;;;;8293444;28;20198;-73
2023/05/02 08:56:21;;;;;;;13.55;9.68;;;;;;;;;;8293983;28;20080;-75
2023/05/02 09:00:21;;;;;;;13.68;9.25;;;;;;;;;;8291710;28;20022;-74
2023/05/02 09:04:23;;;;;;;13.45;9.05;;;;;;;;;;8294112;28;20526;-73
2023/05/02 09:08:23;;;;;;;12.75;9.02;;;;;;;;;;8294468;28;20028;-73
2023/05/02 09:12:25;;;;;;;12.90;8.77;;;;;;;;;;8295679;28;20124;-73
2023/05/02 09:16:25;;;;;;;11.52;8.30;;;;;;;;;;8298369;28;20037;-73
2023/05/02 09:20:26;;;;;;;11.98;8.93;;;;;;;;;;8295042;28;20113;-73
2023/05/02 09:24:26;;;;;;;10.30;7.67;;;;;;;;;;8294639;28;20111;-74
2023/05/02 09:28:40;;;;;;;9.98;7.80;;;;;;;;;;8297381;28;20140;-72
2023/05/02 09:32:43;;;;;;;11.05;6.97;;;;;;;;;;8292480;28;20121;-73
2023/05/02 09:36:43;;;;;;;;;;;;;;;;;;8293805;28;20054;-73
2023/05/02 09:40:52;;;;;;;9.50;7.03;;;;;;;;;;8300668;28;20409;-73
2023/05/02 09:44:52;;;;;;;11.15;7.40;;;;;;;;;;8296561;28;20036;-73
2023/05/02 09:48:56;;;;;;;12.30;8.45;;;;;;;;;;8296463;28;20045;-73
2023/05/02 09:53:03;;;;;;;10.93;8.18;;;;;;;;;;8301803;28;20030;-73
2023/05/02 09:57:05;;;;;;;8.73;6.85;;;;;;;;;;8292239;28;20030;-75
2023/05/02 10:01:06;;;;;;;11.30;8.07;;;;;;;;;;8296581;28;20046;-74
2023/05/02 10:05:07;;;;;;;11.45;7.47;;;;;;;;;;8293140;28;20064;-73
2023/05/02 10:09:08;;;;;;;12.23;8.25;;;;;;;;;;8290367;28;20902;-74
2023/05/02 10:13:08;;;;;;;11.10;7.50;;;;;;;;;;8292512;28;20021;-74
2023/05/02 10:17:13;;;;;;;11.43;7.20;;;;;;;;;;8290427;28;20068;-73
2023/05/02 10:21:15;;;;;;;10.40;6.63;;;;;;;;;;8299545;28;20331;-74
2023/05/02 10:25:15;;;;;;;9.82;6.45;;;;;;;;;;8294600;28;20029;-74
2023/05/02 10:29:16;;;;;;;11.13;6.30;;;;;;;;;;8290444;28;20028;-72
2023/05/02 10:33:18;;;;;;;7.75;5.80;;;;;;;;;;8294624;28;20037;-73
2023/05/02 10:37:18;;;;;;;8.73;6.45;;;;;;;;;;8289973;28;20037;-74
2023/05/02 10:41:25;;;;;;;8.05;5.95;;;;;;;;;;8288407;28;20060;-74
2023/05/02 10:45:29;;;;;;;6.57;4.53;;;;;;;;;;8290621;28;20033;-73
2023/05/02 10:49:29;;;;;;;5.40;3.83;;;;;;;;;;8292606;28;20131;-74
2023/05/02 10:53:35;;;;;;;4.82;3.40;;;;;;;;;;8290134;28;20032;-74
2023/05/02 10:57:55;;;;;;;5.60;3.92;;;;;;;;;;8288339;28;20025;-74
2023/05/02 11:01:56;;;;;;;4.45;3.63;;;;;;;;;;8295591;28;20487;-73
2023/05/02 11:06:05;;;;;;;5.18;4.57;;;;;;;;;;8287814;28;20074;-74
2023/05/02 11:10:19;;;;;;;5.88;4.40;;;;;;;;;;8290643;28;20033;-74
2023/05/02 11:14:25;;;;;;;5.45;4.88;;;;;;;;;;8288807;28;20021;-74
2023/05/02 11:18:25;;;;;;;6.35;5.55;;;;;;;;;;8295597;28;20128;-73
2023/05/02 11:22:30;;;;;;;9.55;5.35;;;;;;;;;;8288499;28;20130;-73
2023/05/02 11:26:31;;;;;;;5.57;4.97;;;;;;;;;;8290619;28;20032;-74
2023/05/02 11:30:37;;;;;;;6.50;4.68;;;;;;;;;;8291337;28;20029;-74
2023/05/02 11:34:40;;;;;;;5.80;4.50;;;;;;;;;;8305859;28;20075;-74
2023/05/02 11:38:41;;;;;;;6.43;4.97;;;;;;;;;;8299621;28;20128;-73
2023/05/02 11:42:41;;;;;;;6.00;5.10;;;;;;;;;;8297290;28;20033;-73
2023/05/02 11:46:42;;;;;;;6.20;5.00;;;;;;;;;;8300023;28;20045;-74
2023/05/02 11:50:43;;;;;;;5.63;4.80;;;;;;;;;;8297326;28;20021;-75
2023/05/02 11:54:43;;;;;;;6.20;5.00;;;;;;;;;;8302793;28;20030;-74
2023/05/02 11:58:44;;;;;;;5.63;5.00;;;;;;;;;;8284150;28;20729;-74
2023/05/02 12:02:49;;;;;;;6.18;5.38;;;;;;;;;;8296363;28;20025;-74
2023/05/02 12:06:58;;;;;;;6.50;4.85;;;;;;;;;;8293596;28;20078;-74
2023/05/02 12:10:58;;;;;;;7.50;4.90;;;;;;;;;;8286968;28;20057;-74
2023/05/02 12:15:05;;;;;;;5.35;4.55;;;;;;;;;;8301369;28;20091;-74
2023/05/02 12:19:05;;;;;;;7.55;4.80;;;;;;;;;;8288137;28;20437;-74
2023/05/02 12:23:06;;;;;;;8.13;4.10;;;;;;;;;;8299545;28;20030;-74
2023/05/02 12:27:13;;;;;;;5.22;3.80;;;;;;;;;;8292536;28;20029;-73
2023/05/02 12:31:14;;;;;;;5.30;4.43;;;;;;;;;;8300503;28;20069;-74
2023/05/02 12:35:20;;;;;;;6.13;3.80;;;;;;;;;;8294340;28;20021;-75
2023/05/02 12:39:33;;;;;;;4.72;3.88;;;;;;;;;;8293641;28;20036;-75
2023/05/02 12:43:46;;;;;;;4.40;4.00;;;;;;;;;;8304675;28;20797;-73
2023/05/02 12:47:46;;;;;;;4.75;3.80;;;;;;;;;;8300490;28;20040;-74
2023/05/02 12:51:52;;;;;;;5.60;3.65;;;;;;;;;;8292183;28;20156;-75
2023/05/02 12:56:00;;;;;;;4.28;3.13;;;;;;;;;;8294692;28;20130;-73
2023/05/02 13:00:00;;;;;;;3.22;2.90;;;;;;;;;;8288506;28;20337;-74
2023/05/02 13:04:01;;;;;;;3.38;2.50;;;;;;;;;;8282686;28;20037;-74
2023/05/02 13:08:01;;;;;;;3.20;2.90;;;;;;;;;;8289381;28;20087;-73
2023/05/02 13:12:04;;;;;;;4.37;3.07;;;;;;;;;;8292370;28;20025;-74
2023/05/02 13:16:05;;;;;;;3.72;2.90;;;;;;;;;;8292136;28;20037;-75
2023/05/02 13:20:07;;;;;;;4.10;3.70;;;;;;;;;;8297373;28;20025;-74
2023/05/02 13:24:07;;;;;;;4.57;3.28;;;;;;;;;;8302629;28;20115;-73
2023/05/02 13:28:07;;;;;;;4.97;4.20;;;;;;;;;;8303692;28;20824;-74
2023/05/02 13:32:07;;;;;;;6.20;3.93;;;;;;;;;;8294743;28;20034;-74
2023/05/02 13:36:08;;;;;;;4.53;3.22;;;;;;;;;;8282575;28;20025;-74
2023/05/02 13:40:09;;;;;;;6.30;3.17;;;;;;;;;;8294408;28;20064;-74
2023/05/02 13:44:10;;;;;;;3.47;3.00;;;;;;;;;;8286368;28;20022;-74
2023/05/02 13:48:11;;;;;;;5.05;2.80;;;;;;;;;;8295953;28;20402;-74
2023/05/02 13:52:11;;;;;;;3.20;2.10;;;;;;;;;;8290966;28;20021;-75
2023/05/02 13:56:11;;;;;;;2.58;2.33;;;;;;;;;;8290850;28;20025;-75
2023/05/02 14:00:12;;;;;;;1.77;1.60;;;;;;;;;;8287081;28;20455;-74
2023/05/02 14:04:12;;;;;;;2.10;1.80;;;;;;;;;;8292711;28;20562;-75
2023/05/02 14:08:17;;;;;;;1.48;1.38;;;;;;;;;;8280218;28;20025;-74
2023/05/02 14:12:17;;;;;;;1.77;1.63;;;;;;;;;;8291757;28;20438;-74
2023/05/02 14:16:20;;;;;;;4.72;2.20;;;;;;;;;;8323128;28;20045;-80
2023/05/02 14:20:22;;;;;;;2.50;2.30;;;;;;;;;;8303435;28;20116;-74
2023/05/02 14:24:22;;;;;;;5.72;2.55;;;;;;;;;;8288179;28;20050;-74
2023/05/02 14:28:22;;;;;;;2.83;2.55;;;;;;;;;;8289812;28;20025;-73
2023/05/02 14:32:23;;;;;;;2.77;2.57;;;;;;;;;;8287710;28;20034;-73
2023/05/02 14:36:23;;;;;;;4.88;2.70;;;;;;;;;;8289109;28;20685;-73
2023/05/02 14:40:23;;;;;;;4.77;3.23;;;;;;;;;;8289834;28;20035;-72
2023/05/02 14:44:23;;;;;;;3.50;3.20;;;;;;;;;;8296319;28;21318;-73
2023/05/02 14:48:24;;;;;;;4.10;3.00;;;;;;;;;;8301984;28;20061;-74
2023/05/02 14:52:24;;;;;;;3.58;3.15;;;;;;;;;;8288171;28;20083;-74
2023/05/02 14:56:24;;;;;;;2.80;2.60;;;;;;;;;;8287365;28;20025;-74
2023/05/02 15:00:25;;;;;;;3.95;2.75;;;;;;;;;;8287785;28;20828;-75
2023/05/02 15:04:25;;;;;;;2.60;2.40;;;;;;;;;;8289935;28;20442;-75
2023/05/02 15:08:25;;;;;;;4.20;2.42;;;;;;;;;;8288807;28;20036;-73
2023/05/02 15:12:25;;;;;;;4.85;2.38;;;;;;;;;;8293099;28;20025;-74
2023/05/02 15:16:26;;;;;;;3.53;1.98;;;;;;;;;;8282286;28;20021;-73
2023/05/02 15:20:26;;;;;;;3.33;2.00;;;;;;;;;;8286316;28;20132;-73
2023/05/02 15:24:26;;;;;;;2.45;2.17;;;;;;;;;;8285923;28;20133;-74
2023/05/02 15:28:27;;;;;;;3.50;2.17;;;;;;;;;;8282791;28;20029;-74
2023/05/02 15:32:27;;;;;;;3.65;1.95;;;;;;;;;;8274315;28;20041;-74
2023/05/02 15:36:28;;;;;;;2.72;1.92;;;;;;;;;;8282366;28;20026;-73
2023/05/02 15:40:28;;;;;;;3.13;2.03;;;;;;;;;;8281410;28;20087;-73
2023/05/02 15:44:29;;;;;;;1.75;1.60;;;;;;;;;;8288477;28;20162;-73
2023/05/02 15:48:31;;;;;;;3.47;1.80;;;;;;;;;;8280759;28;20562;-74
2023/05/02 15:52:31;;;;;;;3.38;1.80;;;;;;;;;;8285869;28;20033;-74
2023/05/02 15:56:32;;;;;;;3.28;1.98;;;;;;;;;;8284086;28;20032;-74
2023/05/02 16:00:32;;;;;;;2.03;1.80;;;;;;;;;;8285367;28;20050;-74
2023/05/02 16:04:33;;;;;;;3.13;2.15;;;;;;;;;;8286483;28;20060;-74
2023/05/02 16:08:33;;;;;;;4.75;2.25;;;;;;;;;;8284555;28;21230;-74
2023/05/02 16:12:34;;;;;;;4.32;2.17;;;;;;;;;;8287463;28;20100;-74
2023/05/02 16:16:34;;;;;;;4.18;2.25;;;;;;;;;;8292485;28;20033;-75
2023/05/02 16:20:35;;;;;;;3.90;2.20;;;;;;;;;;8283471;28;20029;-74
2023/05/02 16:24:35;;;;;;;3.88;2.03;;;;;;;;;;8302127;28;20108;-74
2023/05/02 16:28:36;;;;;;;6.20;2.47;;;;;;;;;;8289249;28;20079;-73
2023/05/02 16:32:36;;;;;;;4.47;2.50;;;;;;;;;;8292351;28;20028;-74
2023/05/02 16:36:36;;;;;;;3.60;2.33;;;;;;;;;;8291081;28;20028;-75
2023/05/02 16:40:36;;;;;;;3.80;2.85;;;;;;;;;;8285668;28;20036;-74
2023/05/02 16:44:37;;;;;;;5.15;2.75;;;;;;;;;;8288701;28;20140;-75
2023/05/02 16:48:37;;;;;;;3.67;2.50;;;;;;;;;;8290384;28;20706;-75
2023/05/02 16:52:37;;;;;;;2.97;2.38;;;;;;;;;;8294170;28;20533;-75
2023/05/02 16:56:37;;;;;;;3.07;2.40;;;;;;;;;;8298044;28;20115;-74
2023/05/02 17:00:39;;;;;;;3.67;2.35;;;;;;;;;;8301896;28;20044;-75
2023/05/02 17:04:39;;;;;;;2.88;2.30;;;;;;;;;;8296882;28;20064;-74
2023/05/02 17:08:39;;;;;;;2.72;2.25;;;;;;;;;;8289390;28;20025;-74
2023/05/02 17:12:40;;;;;;;6.22;2.50;;;;;;;;;;8292862;28;20033;-74
2023/05/02 17:16:40;;;;;;;7.00;2.42;;;;;;;;;;8292489;28;20038;-74
2023/05/02 17:20:40;;;;;;;3.80;2.20;;;;;;;;;;8294064;28;20033;-74
2023/05/02 17:24:41;;;;;;;7.25;2.50;;;;;;;;;;8293065;28;20734;-75
2023/05/02 17:28:42;;;;;;;3.38;2.50;;;;;;;;;;8288270;28;20032;-75
2023/05/02 17:32:43;;;;;;;5.90;2.80;;;;;;;;;;8290545;28;20036;-75
2023/05/02 17:36:43;;;;;;;6.35;2.72;;;;;;;;;;8297079;28;20021;-75
2023/05/02 17:40:44;;;;;;;5.35;2.63;;;;;;;;;;8293768;28;20029;-73
2023/05/02 17:44:46;;;;;;;4.05;2.63;;;;;;;;;;8292790;28;20022;-73
2023/05/02 17:48:46;;;;;;;3.42;2.67;;;;;;;;;;8288814;28;20040;-74
2023/05/02 17:52:47;;;;;;;4.32;3.25;;;;;;;;;;8295322;28;20033;-74
2023/05/02 17:56:48;;;;;;;3.35;2.90;;;;;;;;;;8294464;28;20084;-73
2023/05/02 18:00:50;;;;;;;3.65;2.92;;;;;;;;;;8294057;28;20049;-74
2023/05/02 18:04:50;;;;;;;4.32;2.70;;;;;;;;;;8291512;28;20120;-73
2023/05/02 18:08:50;;;;;;;5.00;2.83;;;;;;;;;;8302137;28;20029;-73
2023/05/02 18:12:51;;;;;;;7.27;2.90;;;;;;;;;;8299254;28;20041;-72
2023/05/02 18:16:51;;;;;;;5.72;2.78;;;;;;;;;;8301655;28;20042;-74
2023/05/02 18:20:51;;;;;;;5.07;2.85;;;;;;;;;;8301371;28;20106;-74
2023/05/02 18:24:53;;;;;;;2.80;2.47;;;;;;;;;;8302597;28;20395;-73
2023/05/02 18:28:53;;;;;;;4.13;2.53;;;;;;;;;;8311730;28;20067;-74
2023/05/02 18:32:53;;;;;;;4.35;2.97;;;;;;;;;;8292969;28;20041;-74
2023/05/02 18:36:53;;;;;;;5.30;3.30;;;;;;;;;;8301051;28;20021;-73
2023/05/02 18:40:54;;;;;;;6.23;2.70;;;;;;;;;;8294116;28;20097;-74
2023/05/02 18:44:54;;;;;;;3.53;2.80;;;;;;;;;;8289780;28;20025;-73
2023/05/02 18:48:54;;;;;;;8.10;3.00;;;;;;;;;;8298095;28;20522;-73
2023/05/02 18:52:54;;;;;;;6.70;3.13;;;;;;;;;;8333259;28;20029;-73
2023/05/02 18:56:54;;;;;;;5.47;3.20;;;;;;;;;;8346466;28;20021;-73
2023/05/02 19:00:55;;;;;;;3.92;3.00;;;;;;;;;;8297490;28;20050;-73
2023/05/02 19:04:55;;;;;;;4.80;3.30;;;;;;;;;;8289356;28;20040;-73
2023/05/02 19:08:55;;;;;;;10.35;3.50;;;;;;;;;;8292516;28;20276;-75
2023/05/02 19:12:55;;;;;;;7.05;3.53;;;;;;;;;;8285052;28;20026;-73
2023/05/02 19:16:56;;;;;;;4.25;3.28;;;;;;;;;;8286460;28;20064;-73
2023/05/02 19:20:56;;;;;;;5.87;3.00;;;;;;;;;;8289940;28;20029;-73
2023/05/02 19:24:56;;;;;;;4.20;3.43;;;;;;;;;;8294343;28;20128;-73
2023/05/02 19:28:57;;;;;;;3.90;3.27;;;;;;;;;;8285682;28;20264;-72
2023/05/02 19:32:57;;;;;;;5.27;2.83;;;;;;;;;;8280846;28;20033;-73
2023/05/02 19:36:57;;;;;;;4.00;3.03;;;;;;;;;;8283231;28;20148;-71
2023/05/02 19:40:57;;;;;;;5.07;2.83;;;;;;;;;;8283915;28;20061;-70
2023/05/02 19:44:57;;;;;;;4.93;2.90;;;;;;;;;;8285044;28;20053;-70
2023/05/02 19:48:58;;;;;;;8.10;3.40;;;;;;;;;;8289910;28;20033;-70
2023/05/02 19:53:00;;;;;;;6.87;3.60;;;;;;;;;;8292828;28;20345;-71
2023/05/02 19:57:01;;;;;;;7.22;3.72;;;;;;;;;;8292487;28;20909;-71
2023/05/02 20:01:02;;;;;;;4.32;3.65;;;;;;;;;;8293114;28;20053;-71
2023/05/02 20:05:02;;;;;;;6.63;3.67;;;;;;;;;;8296249;28;20861;-71
2023/05/02 20:09:03;;;;;;;4.82;3.67;;;;;;;;;;8293239;28;20025;-71
2023/05/02 20:13:03;;;;;;;6.53;3.97;;;;;;;;;;8292652;28;20056;-71
2023/05/02 20:17:03;;;;;;;5.03;3.58;;;;;;;;;;8293753;28;20119;-71
2023/05/02 20:21:03;;;;;;;5.78;3.72;;;;;;;;;;8295660;28;20033;-70
2023/05/02 20:25:04;;;;;;;4.45;3.55;;;;;;;;;;8294754;28;20021;-71
2023/05/02 20:29:06;;;;;;;6.47;4.07;;;;;;;;;;8293486;28;20438;-71
2023/05/02 20:33:06;;;;;;;4.35;3.58;;;;;;;;;;8292743;28;20128;-71
2023/05/02 20:37:06;;;;;;;6.10;3.80;;;;;;;;;;8293723;28;20777;-71
2023/05/02 20:41:10;;;;;;;4.43;3.60;;;;;;;;;;8293889;28;20649;-71
2023/05/02 20:45:11;;;;;;;5.05;3.35;;;;;;;;;;8292729;28;20036;-71
2023/05/02 20:49:11;;;;;;;5.03;3.53;;;;;;;;;;8294919;28;20021;-71
2023/05/02 20:53:11;;;;;;;5.22;3.80;;;;;;;;;;8291680;28;20741;-72
2023/05/02 20:57:12;;;;;;;6.03;3.55;;;;;;;;;;8294809;28;20075;-72
2023/05/02 21:01:12;;;;;;;4.47;2.92;;;;;;;;;;8287315;28;20041;-72
2023/05/02 21:05:13;;;;;;;4.70;3.30;;;;;;;;;;8288383;28;20033;-72
2023/05/02 21:09:14;;;;;;;6.63;3.37;;;;;;;;;;8293981;28;20347;-72
2023/05/02 21:13:14;;;;;;;6.75;3.40;;;;;;;;;;8300068;28;20284;-71
2023/05/02 21:17:14;;;;;;;4.95;3.38;;;;;;;;;;8290716;28;20034;-73
2023/05/02 21:21:15;;;;;;;5.35;3.50;;;;;;;;;;8300513;28;20037;-71
2023/05/02 21:25:15;;;;;;;4.93;3.50;;;;;;;;;;8291939;28;20406;-71
2023/05/02 21:29:15;;;;;;;5.35;3.10;;;;;;;;;;8298876;28;20785;-71
2023/05/02 21:33:16;;;;;;;7.00;3.75;;;;;;;;;;8296510;28;20041;-71
2023/05/02 21:37:16;;;;;;;5.70;4.05;;;;;;;;;;8288706;28;20025;-71
2023/05/02 21:41:16;;;;;;;4.53;3.60;;;;;;;;;;8293286;28;20052;-71
2023/05/02 21:45:17;;;;;;;7.43;3.40;;;;;;;;;;8295474;28;20103;-71
2023/05/02 21:49:17;;;;;;;4.18;3.55;;;;;;;;;;8288570;28;20029;-71
2023/05/02 21:53:17;;;;;;;4.75;3.38;;;;;;;;;;8289845;28;20030;-71
2023/05/02 21:57:18;;;;;;;5.38;3.38;;;;;;;;;;8290408;28;20136;-71
2023/05/02 22:01:18;;;;;;;4.45;3.03;;;;;;;;;;8287943;28;20158;-71
2023/05/02 22:05:18;;;;;;;5.17;2.73;;;;;;;;;;8290098;28;20037;-71
2023/05/02 22:09:20;;;;;;;4.45;2.92;;;;;;;;;;8286611;28;20100;-71
2023/05/02 22:13:20;;;;;;;4.55;3.05;;;;;;;;;;8289064;28;20029;-71
2023/05/02 22:17:21;;;;;;;6.70;3.28;;;;;;;;;;8289451;28;20041;-70
2023/05/02 22:21:21;;;;;;;6.60;3.35;;;;;;;;;;8289064;28;20481;-70
2023/05/02 22:25:21;;;;;;;3.38;2.95;;;;;;;;;;8288281;28;20017;-71
2023/05/02 22:29:22;;;;;;;6.25;2.85;;;;;;;;;;8288189;28;20029;-70
2023/05/02 22:33:22;;;;;;;6.00;3.37;;;;;;;;;;8292585;28;20033;-71
2023/05/02 22:37:22;;;;;;;5.50;3.22;;;;;;;;;;8300603;28;20048;-71
2023/05/02 22:41:22;;;;;;;4.57;3.30;;;;;;;;;;8289355;28;20740;-70
2023/05/02 22:45:23;;;;;;;5.25;3.35;;;;;;;;;;8287853;28;20021;-71
2023/05/02 22:49:23;;;;;;;6.97;3.22;;;;;;;;;;8292648;28;20033;-71
2023/05/02 22:53:24;;;;;;;6.17;3.20;;;;;;;;;;8289528;28;20033;-71
2023/05/02 22:57:25;;;;;;;5.05;3.05;;;;;;;;;;8290447;28;20366;-70
2023/05/02 23:01:26;;;;;;;3.47;2.83;;;;;;;;;;8296612;28;20045;-70
2023/05/02 23:05:26;;;;;;;4.28;2.85;;;;;;;;;;8289569;28;20585;-71
2023/05/02 23:09:26;;;;;;;5.38;2.80;;;;;;;;;;8286799;28;20115;-71
2023/05/02 23:13:27;;;;;;;3.80;2.80;;;;;;;;;;8293066;28;20024;-71
2023/05/02 23:17:27;;;;;;;7.47;2.80;;;;;;;;;;8298029;28;20033;-71
2023/05/02 23:21:27;;;;;;;4.87;2.77;;;;;;;;;;8288457;28;20083;-70
2023/05/02 23:25:28;;;;;;;7.13;2.83;;;;;;;;;;8287948;28;20268;-71
2023/05/02 23:29:28;;;;;;;6.45;3.05;;;;;;;;;;8287251;28;20056;-70
2023/05/02 23:33:29;;;;;;;7.20;3.08;;;;;;;;;;8289789;28;20099;-70
2023/05/02 23:37:29;;;;;;;10.00;3.20;;;;;;;;;;8288645;28;20138;-70
2023/05/02 23:41:30;;;;;;;7.53;3.33;;;;;;;;;;8287928;28;20784;-71
2023/05/02 23:45:30;;;;;;;7.70;3.17;;;;;;;;;;8288042;28;20366;-71
2023/05/02 23:49:30;;;;;;;4.00;2.58;;;;;;;;;;8289452;28;20413;-71
2023/05/02 23:53:30;;;;;;;6.28;3.13;;;;;;;;;;8288410;28;20159;-70